Time;durP1;ratioP1;P1;durP2;ratioP2;P2;SDS_P1;SDS_P2;PMS_P1;PMS_P2;Temp;Humidity;BMP_temperature;BMP_pressure;BME280_temperature;BME280_humidity;BME280_pressure;Samples;Min_cycle;Max_cycle;Signal;HPM_P1;HPM_P2
2021/05/26 00:02:11;;;;;;;3.00;2.08;;;;;;;17.48;61.81;99521.30;1848018;77;20943;-41
2021/05/26 00:04:38;;;;;;;4.42;2.05;;;;;;;17.46;61.67;99527.78;1852826;77;20927;-42
2021/05/26 00:07:05;;;;;;;3.55;1.90;;;;;;;17.44;61.82;99523.28;1834194;77;21913;-41
2021/05/26 00:09:32;;;;;;;3.62;1.80;;;;;;;17.41;61.96;99517.25;1847821;77;20963;-41
2021/05/26 00:12:00;;;;;;;2.85;1.72;;;;;;;17.39;62.08;99519.59;1847286;77;21810;-42
2021/05/26 00:14:28;;;;;;;3.72;1.65;;;;;;;17.37;62.17;99520.02;1829632;75;20974;-42
2021/05/26 00:16:56;;;;;;;4.45;1.77;;;;;;;17.35;62.16;99521.58;1846252;77;21560;-41
2021/05/26 00:19:23;;;;;;;3.62;1.87;;;;;;;17.32;62.18;99520.44;1825718;77;20991;-42
2021/05/26 00:21:50;;;;;;;4.92;1.60;;;;;;;17.34;62.37;99517.28;1835199;77;20951;-41
2021/05/26 00:24:18;;;;;;;2.77;1.67;;;;;;;17.32;62.23;99512.80;1825844;77;21125;-42
2021/05/26 00:26:45;;;;;;;3.22;1.80;;;;;;;17.28;62.45;99512.05;1842272;77;20904;-42
2021/05/26 00:29:12;;;;;;;4.60;1.80;;;;;;;17.22;62.56;99501.31;1853755;77;20907;-41
2021/05/26 00:31:40;;;;;;;2.47;1.62;;;;;;;17.18;62.82;99508.78;1850390;77;21030;-41
2021/05/26 00:34:07;;;;;;;2.92;1.80;;;;;;;17.11;62.78;99499.21;1829451;77;21074;-42
2021/05/26 00:36:33;;;;;;;3.12;2.00;;;;;;;17.11;63.04;99506.06;1825318;78;21511;-42
2021/05/26 00:39:05;;;;;;;3.70;1.70;;;;;;;17.07;63.09;99496.50;1843024;77;21580;-41
2021/05/26 00:41:33;;;;;;;2.65;1.67;;;;;;;17.06;63.15;99499.63;1838733;77;21846;-41
2021/05/26 00:44:00;;;;;;;3.22;1.70;;;;;;;17.04;63.27;99496.53;1826011;77;21578;-41
2021/05/26 00:46:27;;;;;;;4.03;1.87;;;;;;;17.04;63.30;99497.89;1823928;77;21010;-41
2021/05/26 00:48:54;;;;;;;4.17;1.70;;;;;;;17.01;63.33;99496.72;1815304;77;21082;-41
2021/05/26 00:51:21;;;;;;;2.72;1.72;;;;;;;17.00;63.44;99497.89;1817039;77;21006;-41
2021/05/26 00:53:48;;;;;;;2.40;1.72;;;;;;;16.98;63.54;99493.42;1836991;77;21535;-41
2021/05/26 00:56:16;;;;;;;3.42;1.62;;;;;;;16.98;63.66;99488.53;1828243;77;20993;-42
2021/05/26 00:58:43;;;;;;;2.72;1.75;;;;;;;16.97;63.70;99496.55;1828835;77;21073;-41
2021/05/26 01:01:10;;;;;;;2.30;1.80;;;;;;;16.93;63.74;99489.72;1795455;77;21097;-41
2021/05/26 01:03:38;;;;;;;2.12;1.80;;;;;;;16.90;63.90;99478.18;1835014;77;20970;-41
2021/05/26 01:06:06;;;;;;;4.47;1.82;;;;;;;16.85;64.04;99488.96;1825634;77;20963;-41
2021/05/26 01:08:33;;;;;;;5.60;2.10;;;;;;;16.83;64.10;99491.92;1852738;77;20998;-41
2021/05/26 01:11:05;;;;;;;4.97;1.95;;;;;;;16.79;64.24;99494.68;1836053;77;20931;-42
2021/05/26 01:13:33;;;;;;;4.17;2.10;;;;;;;16.77;64.31;99486.66;1821302;77;21589;-41
2021/05/26 01:16:02;;;;;;;3.12;2.30;;;;;;;16.75;64.45;99480.20;1855917;77;21480;-41
2021/05/26 01:18:32;;;;;;;2.22;1.70;;;;;;;16.75;64.45;99479.45;1817565;77;21005;-41
2021/05/26 01:21:08;;;;;;;3.40;1.90;;;;;;;16.72;64.52;99472.01;1832748;77;20958;-41
2021/05/26 01:23:36;;;;;;;3.12;2.02;;;;;;;16.68;64.60;99469.30;1833106;77;21258;-41
2021/05/26 01:26:06;;;;;;;4.37;1.97;;;;;;;16.68;64.72;99470.66;1840065;77;21484;-41
2021/05/26 01:28:34;;;;;;;3.65;2.12;;;;;;;16.67;64.76;99467.73;1825461;77;20958;-41
2021/05/26 01:31:02;;;;;;;4.22;2.37;;;;;;;16.65;64.86;99470.69;1829400;77;20958;-41
2021/05/26 01:33:30;;;;;;;3.87;2.08;;;;;;;16.62;64.93;99470.88;1834621;77;21675;-41
2021/05/26 01:35:59;;;;;;;6.20;2.10;;;;;;;16.59;65.05;99466.80;1824785;77;21038;-41
2021/05/26 01:38:26;;;;;;;3.45;2.15;;;;;;;16.53;65.20;99465.02;1770351;77;21088;-41
2021/05/26 01:41:01;;;;;;;2.10;1.90;;;;;;;16.49;65.28;99470.52;1830480;77;20975;-41
2021/05/26 01:43:28;;;;;;;3.20;1.92;;;;;;;16.48;65.46;99468.16;1818434;77;20951;-41
2021/05/26 01:45:55;;;;;;;3.22;2.15;;;;;;;16.49;65.54;99471.09;1831649;77;21006;-41
2021/05/26 01:48:22;;;;;;;4.20;2.00;;;;;;;16.49;65.52;99469.14;1839653;77;20950;-41
2021/05/26 01:50:49;;;;;;;3.70;2.15;;;;;;;16.50;65.61;99469.92;1846545;77;21059;-41
2021/05/26 01:53:18;;;;;;;5.85;2.60;;;;;;;16.50;65.64;99469.92;1831066;77;21011;-42
2021/05/26 01:55:45;;;;;;;5.35;2.35;;;;;;;16.50;65.74;99468.56;1836919;75;21532;-41
2021/05/26 01:58:15;;;;;;;4.08;2.72;;;;;;;16.51;65.82;99460.52;1821750;77;21033;-41
2021/05/26 02:00:43;;;;;;;3.08;2.33;;;;;;;16.52;65.88;99457.98;1830388;77;20951;-41
2021/05/26 02:03:10;;;;;;;3.90;2.22;;;;;;;16.54;65.90;99454.27;1831183;77;21059;-41
2021/05/26 02:05:38;;;;;;;6.72;2.30;;;;;;;16.54;65.94;99454.27;1825181;77;21364;-41
2021/05/26 02:08:05;;;;;;;4.12;2.60;;;;;;;16.53;66.04;99455.44;1849180;77;20923;-42
2021/05/26 02:13:19;;;;;;;5.08;3.00;;;;;;;16.50;66.27;99443.92;1844041;77;21623;-41
2021/05/26 02:15:48;;;;;;;6.17;2.58;;;;;;;16.48;66.50;99436.69;1848785;77;21737;-41
2021/05/26 02:18:15;;;;;;;6.45;2.77;;;;;;;16.41;66.64;99441.59;1841111;77;21010;-42
2021/05/26 02:20:42;;;;;;;5.62;2.65;;;;;;;16.39;66.78;99435.75;1829797;77;21521;-41
2021/05/26 02:23:13;;;;;;;5.15;2.58;;;;;;;16.39;66.89;99439.86;1816064;77;21027;-41
2021/05/26 02:25:41;;;;;;;3.65;2.70;;;;;;;16.44;66.97;99445.51;1777978;79;21042;-41
2021/05/26 02:28:10;;;;;;;3.92;2.65;;;;;;;16.47;66.97;99443.33;1813748;78;20976;-41
2021/05/26 02:30:37;;;;;;;5.03;3.10;;;;;;;16.50;66.99;99452.14;1798425;78;20970;-41
2021/05/26 02:33:05;;;;;;;6.95;3.10;;;;;;;16.56;66.87;99450.53;1776344;80;21034;-41
2021/05/26 02:35:33;;;;;;;4.05;2.42;;;;;;;16.60;66.81;99456.83;1795470;78;21616;-41
2021/05/26 02:38:00;;;;;;;4.78;2.77;;;;;;;16.66;66.74;99447.59;1799668;78;21083;-41
2021/05/26 02:40:27;;;;;;;3.55;2.35;;;;;;;16.73;66.61;99453.83;1785932;78;21548;-41
2021/05/26 02:42:55;;;;;;;5.75;3.00;;;;;;;16.76;66.57;99457.72;1772238;79;20977;-41
2021/05/26 02:45:22;;;;;;;4.28;2.87;;;;;;;16.80;66.65;99452.41;1761302;80;21387;-41
2021/05/26 02:47:50;;;;;;;5.87;2.30;;;;;;;16.85;66.50;99455.32;1777500;80;21070;-41
2021/05/26 02:50:17;;;;;;;4.95;3.00;;;;;;;16.90;66.48;99452.95;1792258;80;21046;-42
2021/05/26 02:52:47;;;;;;;9.48;3.37;;;;;;;16.94;66.52;99455.69;1789990;79;21016;-42
2021/05/26 02:55:16;;;;;;;2.87;2.50;;;;;;;16.94;66.54;99457.81;1783366;79;21021;-42
2021/05/26 02:57:45;;;;;;;5.62;2.58;;;;;;;16.96;66.57;99453.31;1781447;78;20931;-42
2021/05/26 03:00:19;;;;;;;3.65;2.55;;;;;;;16.98;66.62;99453.70;1772400;78;21039;-42
2021/05/26 03:03:04;;;;;;;4.03;3.00;;;;;;;17.03;66.69;99453.88;1774545;79;21304;-42
2021/05/26 03:05:32;;;;;;;4.60;2.58;;;;;;;17.06;66.64;99438.78;1820347;78;21654;-42
2021/05/26 03:08:00;;;;;;;4.80;2.70;;;;;;;17.06;66.69;99439.37;1811504;78;21010;-42
2021/05/26 03:10:29;;;;;;;8.15;2.87;;;;;;;17.07;66.83;99456.00;1783535;79;21548;-42
2021/05/26 03:12:59;;;;;;;5.37;2.72;;;;;;;17.11;66.77;99468.49;1795332;79;21595;-42
2021/05/26 03:15:27;;;;;;;6.75;2.95;;;;;;;17.18;66.52;99485.48;1784335;79;21030;-42
2021/05/26 03:17:55;;;;;;;3.55;2.40;;;;;;;17.23;66.36;99487.81;1757077;81;21087;-42
2021/05/26 03:20:23;;;;;;;4.70;2.80;;;;;;;17.27;66.20;99500.89;1790503;78;21430;-42
2021/05/26 03:23:02;;;;;;;5.25;2.90;;;;;;;17.26;66.37;99504.22;1786096;79;21008;-41
2021/05/26 03:25:48;;;;;;;4.62;2.98;;;;;;;17.24;66.40;99509.89;1783502;80;20916;-42
2021/05/26 03:28:16;;;;;;;3.83;2.70;;;;;;;17.19;66.59;99517.95;1760642;78;21039;-42
2021/05/26 03:30:43;;;;;;;3.87;2.72;;;;;;;17.19;66.83;99536.34;1785870;78;21470;-42
2021/05/26 03:33:11;;;;;;;3.98;2.62;;;;;;;17.22;66.97;99535.56;1802612;78;21059;-42
2021/05/26 03:35:40;;;;;;;4.78;2.67;;;;;;;17.26;67.14;99541.21;1804720;78;20935;-42
2021/05/26 03:38:07;;;;;;;4.40;3.10;;;;;;;17.29;67.12;99542.36;1772046;79;21621;-42
2021/05/26 03:40:36;;;;;;;3.37;2.80;;;;;;;17.29;67.06;99551.95;1785979;79;21054;-42
2021/05/26 03:43:04;;;;;;;5.37;3.22;;;;;;;17.30;67.12;99555.67;1770803;80;21128;-42
2021/05/26 03:45:33;;;;;;;4.00;2.75;;;;;;;17.31;67.22;99553.71;1773774;78;21691;-42
2021/05/26 03:48:01;;;;;;;2.85;2.47;;;;;;;17.28;67.32;99546.30;1767006;80;21083;-42
2021/05/26 03:50:28;;;;;;;5.15;3.00;;;;;;;17.29;67.45;99545.88;1780578;80;21074;-42
2021/05/26 03:52:57;;;;;;;6.33;3.00;;;;;;;17.30;67.62;99535.12;1808595;78;21072;-42
2021/05/26 03:55:25;;;;;;;6.55;3.17;;;;;;;17.30;67.83;99546.66;1775394;78;21002;-42
2021/05/26 03:57:53;;;;;;;3.52;3.22;;;;;;;17.27;67.99;99539.25;1823275;78;21563;-42
2021/05/26 04:00:22;;;;;;;5.20;3.20;;;;;;;17.26;68.13;99543.95;1835515;77;20923;-42
2021/05/26 04:02:51;;;;;;;5.25;3.12;;;;;;;17.25;68.17;99532.80;1845087;77;21014;-42
2021/05/26 04:05:19;;;;;;;5.42;3.08;;;;;;;17.27;68.23;99544.73;1829779;78;21587;-42
2021/05/26 04:07:47;;;;;;;5.87;3.55;;;;;;;17.29;68.14;99549.20;1823797;78;20939;-42
2021/05/26 04:10:16;;;;;;;3.62;2.95;;;;;;;17.29;68.20;99552.73;1816431;78;21072;-42
2021/05/26 04:12:44;;;;;;;3.90;3.12;;;;;;;17.26;68.39;99545.91;1742149;81;20982;-42
2021/05/26 04:15:27;;;;;;;6.58;3.17;;;;;;;17.25;68.44;99540.23;1795686;79;21624;-42
2021/05/26 04:18:06;;;;;;;5.67;3.27;;;;;;;17.20;68.58;99546.13;1814534;78;21023;-42
2021/05/26 04:20:33;;;;;;;3.75;3.15;;;;;;;17.18;68.69;99545.77;1816391;78;21781;-42
2021/05/26 04:23:02;;;;;;;4.75;3.33;;;;;;;17.14;68.73;99548.50;1816964;77;21592;-42
2021/05/26 04:25:29;;;;;;;4.85;3.40;;;;;;;17.14;68.97;99539.50;1796853;79;20948;-42
2021/05/26 04:27:57;;;;;;;4.60;3.40;;;;;;;17.17;69.09;99551.83;1796805;79;21075;-42
2021/05/26 04:30:25;;;;;;;3.55;3.08;;;;;;;17.19;69.12;99554.93;1829694;78;20936;-42
2021/05/26 04:32:52;;;;;;;5.83;3.92;;;;;;;17.20;69.29;99557.08;1791531;79;21145;-42
2021/05/26 04:35:18;;;;;;;4.37;3.60;;;;;;;17.20;69.32;99551.61;1784734;79;20991;-42
2021/05/26 04:37:46;;;;;;;4.00;3.45;;;;;;;17.21;69.37;99550.44;1809156;78;20958;-42
2021/05/26 04:40:15;;;;;;;4.10;3.15;;;;;;;17.26;69.49;99548.64;1829502;78;21050;-42
2021/05/26 04:42:41;;;;;;;4.92;3.47;;;;;;;17.29;69.49;99556.06;1829981;78;20903;-42
2021/05/26 04:45:12;;;;;;;5.03;3.17;;;;;;;17.30;69.64;99558.41;1825492;78;21041;-42
2021/05/26 04:47:40;;;;;;;6.95;3.40;;;;;;;17.33;69.86;99566.44;1796874;79;21084;-42
2021/05/26 04:50:10;;;;;;;3.50;3.20;;;;;;;17.38;69.83;99560.51;1804252;78;21000;-42
2021/05/26 04:52:36;;;;;;;4.33;3.08;;;;;;;17.45;69.87;99555.59;1804173;78;21105;-42
2021/05/26 04:55:04;;;;;;;8.03;3.25;;;;;;;17.47;69.84;99554.02;1800412;78;21027;-42
2021/05/26 04:57:31;;;;;;;4.83;3.35;;;;;;;17.51;69.82;99552.03;1808861;78;21055;-42
2021/05/26 04:59:59;;;;;;;6.00;3.42;;;;;;;17.55;69.62;99562.97;1801903;78;21006;-42
2021/05/26 05:02:25;;;;;;;5.83;3.60;;;;;;;17.61;69.50;99565.52;1804508;78;21015;-42
2021/05/26 05:04:52;;;;;;;3.33;2.80;;;;;;;17.68;69.14;99561.34;1817005;78;21600;-42
2021/05/26 05:07:19;;;;;;;5.47;3.72;;;;;;;17.69;68.94;99566.44;1797305;78;21086;-42
2021/05/26 05:09:47;;;;;;;5.50;3.67;;;;;;;17.72;68.95;99568.95;1809592;78;21170;-42
2021/05/26 05:12:13;;;;;;;5.65;3.67;;;;;;;17.75;68.88;99572.27;1808029;78;20962;-42
2021/05/26 05:14:40;;;;;;;7.08;3.37;;;;;;;17.79;69.00;99572.44;1778443;80;21604;-42
2021/05/26 05:17:07;;;;;;;7.37;3.30;;;;;;;17.85;69.19;99564.56;1782932;80;21580;-42
2021/05/26 05:19:33;;;;;;;7.12;3.60;;;;;;;17.96;69.08;99557.64;1803393;78;21322;-42
2021/05/26 05:22:01;;;;;;;3.98;3.30;;;;;;;18.07;68.73;99561.05;1814102;78;20970;-42
2021/05/26 05:24:28;;;;;;;5.50;3.50;;;;;;;18.14;68.50;99569.23;1794045;80;20958;-42
2021/05/26 05:26:55;;;;;;;5.37;2.90;;;;;;;18.18;68.15;99568.02;1800739;78;21027;-42
2021/05/26 05:29:21;;;;;;;3.80;3.05;;;;;;;18.23;67.77;99570.92;1807630;78;21070;-42
2021/05/26 05:31:48;;;;;;;3.92;3.10;;;;;;;18.23;67.76;99574.45;1780964;80;21601;-42
2021/05/26 05:34:15;;;;;;;5.80;3.10;;;;;;;18.24;67.96;99572.48;1796764;78;21568;-42
2021/05/26 05:36:42;;;;;;;5.95;2.62;;;;;;;18.28;68.01;99577.94;1815217;78;21757;-42
2021/05/26 05:39:08;;;;;;;3.47;2.87;;;;;;;18.34;67.96;99580.44;1798637;78;21062;-42
2021/05/26 05:41:35;;;;;;;3.83;2.95;;;;;;;18.41;68.03;99574.87;1821298;78;21571;-42
2021/05/26 05:44:04;;;;;;;3.45;2.85;;;;;;;18.50;67.84;99578.70;1815252;78;21591;-42
2021/05/26 05:46:30;;;;;;;5.17;2.87;;;;;;;18.57;67.83;99577.89;1809247;78;21063;-42
2021/05/26 05:48:57;;;;;;;5.55;3.40;;;;;;;18.65;67.34;99581.52;1794155;80;20991;-42
2021/05/26 05:51:24;;;;;;;4.70;3.17;;;;;;;18.71;67.17;99576.95;1805339;79;20968;-42
2021/05/26 05:53:50;;;;;;;4.40;3.15;;;;;;;18.71;66.79;99583.82;1787053;80;21157;-42
2021/05/26 05:56:17;;;;;;;5.72;3.25;;;;;;;18.65;67.12;99591.13;1792031;79;20994;-43
2021/05/26 05:58:44;;;;;;;3.55;2.90;;;;;;;18.59;67.15;99604.33;1764711;81;21539;-42
2021/05/26 06:01:10;;;;;;;5.60;3.47;;;;;;;18.54;67.20;99595.94;1764344;81;21055;-42
2021/05/26 06:03:39;;;;;;;5.75;3.40;;;;;;;18.55;67.72;99611.83;1754619;81;20967;-42
2021/05/26 06:06:06;;;;;;;6.08;3.60;;;;;;;18.60;67.91;99619.63;1734099;82;21627;-42
2021/05/26 06:08:32;;;;;;;5.72;3.50;;;;;;;18.56;67.73;99616.92;1760142;81;21027;-42
2021/05/26 06:10:59;;;;;;;5.95;3.02;;;;;;;18.53;67.99;99627.36;1755028;81;21668;-42
2021/05/26 06:13:27;;;;;;;5.08;3.22;;;;;;;18.54;67.88;99619.28;1762641;81;20970;-42
2021/05/26 06:15:55;;;;;;;4.62;3.42;;;;;;;18.58;68.13;99628.29;1763776;80;21075;-42
2021/05/26 06:18:22;;;;;;;4.92;3.27;;;;;;;18.66;67.92;99630.36;1736104;81;21093;-42
2021/05/26 06:20:49;;;;;;;5.10;3.15;;;;;;;18.71;67.62;99622.27;1740469;79;21587;-42
2021/05/26 06:23:16;;;;;;;4.95;3.40;;;;;;;18.74;67.69;99633.22;1750769;81;21137;-42
2021/05/26 06:25:43;;;;;;;5.08;3.25;;;;;;;18.76;67.65;99639.69;1750193;81;20994;-42
2021/05/26 06:28:10;;;;;;;5.97;3.33;;;;;;;18.76;67.72;99643.80;1743159;79;21054;-42
2021/05/26 06:30:38;;;;;;;4.70;3.12;;;;;;;18.76;67.46;99646.55;1744848;81;21177;-42
2021/05/26 06:33:05;;;;;;;4.25;3.30;;;;;;;18.72;67.43;99634.83;1745221;81;21034;-42
2021/05/26 06:35:31;;;;;;;3.72;2.83;;;;;;;18.70;67.63;99639.94;1748558;81;22320;-42
2021/05/26 06:37:59;;;;;;;4.17;3.40;;;;;;;18.68;67.67;99642.33;1746203;81;21430;-42
2021/05/26 06:40:26;;;;;;;4.08;3.27;;;;;;;18.73;67.84;99644.63;1742577;79;21908;-42
2021/05/26 06:42:53;;;;;;;5.00;3.00;;;;;;;18.79;67.84;99647.10;1754685;80;21085;-42
2021/05/26 06:45:20;;;;;;;4.55;3.40;;;;;;;18.82;67.76;99640.81;1740616;81;21093;-42
2021/05/26 06:47:47;;;;;;;4.00;3.15;;;;;;;18.81;67.78;99650.23;1733281;82;21087;-42
2021/05/26 06:50:16;;;;;;;4.28;3.22;;;;;;;18.83;67.85;99644.50;1743774;81;21022;-42
2021/05/26 06:52:43;;;;;;;3.47;3.02;;;;;;;18.84;67.71;99650.19;1763608;81;21698;-42
2021/05/26 06:55:11;;;;;;;3.55;2.85;;;;;;;18.86;67.89;99651.16;1762668;81;21010;-42
2021/05/26 06:57:38;;;;;;;4.33;3.27;;;;;;;18.87;68.14;99655.48;1763679;79;21050;-42
2021/05/26 07:00:07;;;;;;;3.90;3.20;;;;;;;18.87;68.45;99651.36;1773905;79;21097;-42
2021/05/26 07:02:34;;;;;;;3.50;2.77;;;;;;;18.87;68.17;99656.84;1762820;81;21588;-42
2021/05/26 07:05:00;;;;;;;4.10;2.65;;;;;;;18.88;68.13;99659.79;1763288;81;20998;-42
2021/05/26 07:07:27;;;;;;;2.75;2.50;;;;;;;18.90;68.20;99666.42;1740342;80;21113;-42
2021/05/26 07:09:54;;;;;;;3.10;2.62;;;;;;;18.96;68.51;99673.04;1751601;81;21090;-42
2021/05/26 07:12:20;;;;;;;5.22;2.83;;;;;;;18.97;67.75;99673.23;1749264;79;21684;-42
2021/05/26 07:14:49;;;;;;;2.92;2.40;;;;;;;18.93;67.44;99677.95;1732929;82;21049;-42
2021/05/26 07:17:16;;;;;;;4.12;2.83;;;;;;;18.89;67.41;99677.22;1749032;81;20982;-42
2021/05/26 07:19:43;;;;;;;3.65;2.58;;;;;;;18.88;67.16;99680.39;1734500;81;21092;-42
2021/05/26 07:22:09;;;;;;;4.37;2.50;;;;;;;18.85;67.28;99677.84;1729941;82;21134;-42
2021/05/26 07:24:37;;;;;;;6.30;2.70;;;;;;;18.87;67.35;99680.20;1729625;82;23120;-42
2021/05/26 07:27:04;;;;;;;4.85;2.67;;;;;;;18.87;67.16;99678.83;1729614;82;21004;-42
2021/05/26 07:29:32;;;;;;;5.60;2.85;;;;;;;18.83;67.28;99676.71;1729849;82;21031;-42
2021/05/26 07:32:00;;;;;;;4.08;2.62;;;;;;;18.80;67.21;99675.55;1729610;82;21028;-42
2021/05/26 07:34:27;;;;;;;3.52;2.52;;;;;;;18.75;67.37;99681.47;1726663;82;21107;-42
2021/05/26 07:36:54;;;;;;;6.35;2.98;;;;;;;18.67;67.71;99679.98;1721067;82;21906;-42
2021/05/26 07:39:23;;;;;;;8.63;3.00;;;;;;;18.65;67.62;99681.76;1717682;82;21115;-41
2021/05/26 07:41:50;;;;;;;5.30;3.50;;;;;;;18.63;67.81;99680.03;1713113;82;21014;-41
2021/05/26 07:44:17;;;;;;;5.00;2.60;;;;;;;18.63;68.06;99678.66;1718153;82;21224;-41
2021/05/26 07:46:44;;;;;;;4.45;3.05;;;;;;;18.64;68.17;99678.81;1730355;82;21131;-41
2021/05/26 07:49:10;;;;;;;3.65;2.37;;;;;;;18.68;68.14;99679.40;1724140;82;21054;-41
2021/05/26 07:51:45;;;;;;;6.70;2.80;;;;;;;18.72;68.14;99684.27;1700716;82;21633;-41
2021/05/26 07:54:08;;;;;;;3.25;2.52;;;;;;;18.79;67.99;99686.93;1715385;82;21677;-41
2021/05/26 07:56:35;;;;;;;7.20;3.08;;;;;;;18.77;68.00;99685.20;1717332;82;21633;-41
2021/05/26 07:59:03;;;;;;;3.58;2.87;;;;;;;18.76;68.21;99685.79;1758314;81;21094;-42
2021/05/26 08:01:30;;;;;;;6.65;3.10;;;;;;;18.85;68.27;99679.81;1738725;81;21053;-41
2021/05/26 08:03:57;;;;;;;4.70;3.00;;;;;;;18.95;68.15;99671.48;1753786;81;21002;-41
2021/05/26 08:06:24;;;;;;;5.25;2.92;;;;;;;19.05;67.60;99667.84;1760152;81;21013;-42
2021/05/26 08:08:50;;;;;;;7.58;3.70;;;;;;;19.07;67.37;99663.32;1760498;81;21058;-41
2021/05/26 08:11:16;;;;;;;7.05;3.83;;;;;;;19.06;67.07;99666.66;1757208;81;21014;-42
2021/05/26 08:13:45;;;;;;;6.37;3.77;;;;;;;19.02;67.53;99665.92;1761111;81;20995;-41
2021/05/26 08:16:11;;;;;;;6.90;3.40;;;;;;;19.05;67.37;99661.56;1760775;81;20947;-42
2021/05/26 08:18:38;;;;;;;6.45;3.30;;;;;;;19.15;67.22;99662.05;1749287;81;21101;-41
2021/05/26 08:21:07;;;;;;;7.75;3.98;;;;;;;19.27;67.16;99662.88;1761237;81;20963;-42
2021/05/26 08:23:34;;;;;;;6.30;3.92;;;;;;;19.33;66.99;99666.73;1741505;81;21122;-42
2021/05/26 08:26:00;;;;;;;7.35;4.22;;;;;;;19.40;66.67;99662.55;1740543;81;21056;-41
2021/05/26 08:28:27;;;;;;;4.28;3.25;;;;;;;19.45;66.49;99670.37;1744077;81;21375;-42
2021/05/26 08:30:54;;;;;;;4.87;3.25;;;;;;;19.52;66.08;99677.14;1754342;80;21847;-41
2021/05/26 08:33:21;;;;;;;7.53;3.62;;;;;;;19.60;65.92;99684.72;1757927;81;20982;-42
2021/05/26 08:35:48;;;;;;;5.33;3.20;;;;;;;19.62;65.79;99680.16;1731151;82;21022;-41
2021/05/26 08:38:15;;;;;;;5.90;3.45;;;;;;;19.65;65.69;99677.98;1744471;81;21098;-41
2021/05/26 08:40:42;;;;;;;8.85;4.20;;;;;;;19.66;65.65;99680.89;1761128;81;21556;-41
2021/05/26 08:43:08;;;;;;;7.15;3.50;;;;;;;19.63;65.61;99689.98;1754974;81;21077;-42
2021/05/26 08:45:35;;;;;;;6.42;3.30;;;;;;;19.65;65.89;99697.23;1734267;81;21637;-42
2021/05/26 08:48:04;;;;;;;6.75;3.30;;;;;;;19.71;65.66;99696.35;1752523;81;21077;-42
2021/05/26 08:50:31;;;;;;;5.47;3.15;;;;;;;19.77;65.14;99707.09;1756866;81;21072;-42
2021/05/26 08:52:58;;;;;;;6.85;3.45;;;;;;;19.81;65.20;99709.78;1753847;81;21005;-41
2021/05/26 08:55:24;;;;;;;4.40;3.17;;;;;;;19.82;64.99;99709.97;1755172;81;21321;-41
2021/05/26 08:57:50;;;;;;;5.00;3.22;;;;;;;19.79;64.89;99706.09;1741711;81;21042;-42
2021/05/26 09:00:19;;;;;;;4.75;3.10;;;;;;;19.77;65.16;99707.09;1737831;81;21062;-42
2021/05/26 09:02:46;;;;;;;3.33;2.70;;;;;;;19.75;65.05;99703.95;1736162;81;21052;-42
2021/05/26 09:05:28;;;;;;;4.10;2.80;;;;;;;19.75;65.03;99702.58;1736794;81;20940;-42
2021/05/26 09:07:56;;;;;;;4.55;3.17;;;;;;;19.81;65.18;99709.19;1723492;81;21610;-42
2021/05/26 09:10:22;;;;;;;8.40;3.47;;;;;;;19.84;65.01;99699.34;1735104;81;21066;-42
2021/05/26 09:12:52;;;;;;;5.08;3.30;;;;;;;19.81;65.34;99698.19;1731632;81;21113;-41
2021/05/26 09:15:21;;;;;;;4.20;3.00;;;;;;;19.84;65.52;99698.75;1733047;81;21092;-42
2021/05/26 09:17:53;;;;;;;3.92;2.95;;;;;;;19.88;65.04;99706.95;1749105;81;21061;-42
2021/05/26 09:20:28;;;;;;;3.10;2.80;;;;;;;19.90;65.03;99701.80;1732729;81;21209;-42
2021/05/26 09:23:17;;;;;;;4.65;3.17;;;;;;;19.94;64.96;99693.67;1746836;81;21115;-42
2021/05/26 09:25:50;;;;;;;5.55;3.22;;;;;;;20.04;65.19;99685.11;1739724;81;21082;-42
2021/05/26 09:28:34;;;;;;;4.97;3.33;;;;;;;20.15;65.02;99698.11;1740405;81;21078;-41
2021/05/26 09:31:05;;;;;;;4.45;3.77;;;;;;;20.24;64.97;99704.46;1742515;81;21063;-42
2021/05/26 09:33:44;;;;;;;4.42;3.12;;;;;;;20.39;64.28;99701.12;1739311;81;20951;-41
2021/05/26 09:36:21;;;;;;;4.25;2.83;;;;;;;20.45;63.49;99697.89;1733158;81;21069;-42
2021/05/26 09:38:56;;;;;;;4.78;2.85;;;;;;;20.50;63.25;99700.17;1749916;81;21030;-42
2021/05/26 09:41:36;;;;;;;3.80;3.20;;;;;;;20.55;63.02;99705.20;1728677;81;21134;-42
2021/05/26 09:44:10;;;;;;;4.53;3.10;;;;;;;20.52;63.07;99712.34;1716776;83;21098;-42
2021/05/26 09:46:38;;;;;;;5.87;3.33;;;;;;;20.52;62.75;99716.48;1734015;82;21559;-42
2021/05/26 09:49:17;;;;;;;5.05;2.85;;;;;;;20.55;63.18;99719.77;1742996;81;21556;-42
2021/05/26 09:51:58;;;;;;;4.28;3.15;;;;;;;20.61;63.06;99720.85;1735275;81;21576;-42
2021/05/26 09:54:31;;;;;;;3.55;2.77;;;;;;;20.66;62.82;99722.35;1735392;81;21087;-42
2021/05/26 09:57:06;;;;;;;5.45;2.95;;;;;;;20.66;62.76;99723.13;1742906;81;21122;-42
2021/05/26 09:59:35;;;;;;;4.17;2.67;;;;;;;20.62;62.83;99724.39;1734696;80;20998;-42
2021/05/26 10:02:06;;;;;;;3.10;2.80;;;;;;;20.58;62.93;99722.27;1751187;81;21022;-41
2021/05/26 10:04:31;;;;;;;4.70;2.98;;;;;;;20.55;62.83;99722.52;1721856;83;21031;-42
2021/05/26 10:07:16;;;;;;;3.20;2.90;;;;;;;20.52;62.42;99720.61;1740113;81;21084;-42
2021/05/26 10:09:45;;;;;;;4.47;2.75;;;;;;;20.41;62.64;99726.09;1722776;80;20970;-41
2021/05/26 10:12:19;;;;;;;3.10;2.80;;;;;;;20.36;63.02;99728.12;1708405;81;20959;-42
2021/05/26 10:14:47;;;;;;;3.83;2.87;;;;;;;20.42;62.40;99726.27;1748644;81;21094;-42
2021/05/26 10:17:19;;;;;;;7.65;2.90;;;;;;;20.47;62.75;99723.05;1751396;81;21014;-42
2021/05/26 10:19:43;;;;;;;4.17;2.92;;;;;;;20.61;62.61;99727.73;1750436;81;21350;-42
2021/05/26 10:22:10;;;;;;;3.55;2.92;;;;;;;20.68;62.26;99725.45;1741606;81;21006;-42
2021/05/26 10:24:38;;;;;;;4.78;2.90;;;;;;;20.72;62.30;99728.95;1740981;81;20975;-42
2021/05/26 10:27:06;;;;;;;3.12;2.80;;;;;;;20.75;62.55;99731.64;1729551;81;21550;-42
2021/05/26 10:29:42;;;;;;;3.55;2.83;;;;;;;20.80;61.99;99724.27;1737015;81;21553;-41
2021/05/26 10:32:21;;;;;;;5.78;3.20;;;;;;;20.79;61.80;99723.30;1729814;81;21683;-42
2021/05/26 10:35:03;;;;;;;3.50;2.95;;;;;;;20.73;61.96;99717.48;1741247;81;21143;-42
2021/05/26 10:37:33;;;;;;;3.92;3.22;;;;;;;20.71;61.94;99724.63;1731034;81;21018;-42
2021/05/26 10:40:02;;;;;;;3.58;2.72;;;;;;;20.70;62.36;99726.60;1725565;81;21065;-42
2021/05/26 10:42:34;;;;;;;;;;;;;;;20.68;62.91;99721.31;1750808;81;21609;-42
2021/05/26 10:45:04;;;;;;;3.52;2.60;;;;;;;20.72;63.28;99724.19;1735918;81;20617;-42
2021/05/26 10:47:42;;;;;;;2.80;2.60;;;;;;;20.65;63.32;99716.06;1732432;81;20986;-42
2021/05/26 10:50:15;;;;;;;3.70;2.65;;;;;;;20.69;63.02;99716.77;1742893;81;20979;-42
2021/05/26 10:53:05;;;;;;;4.08;2.50;;;;;;;20.70;62.62;99719.72;1735800;81;21600;-42
2021/05/26 10:55:45;;;;;;;3.15;2.80;;;;;;;20.73;62.42;99719.47;1732596;81;21592;-42
2021/05/26 10:58:25;;;;;;;4.50;2.77;;;;;;;20.68;62.49;99713.05;1739750;81;21064;-42
2021/05/26 11:01:08;;;;;;;3.27;2.20;;;;;;;20.68;62.77;99713.05;1733523;81;21014;-42
2021/05/26 11:03:44;;;;;;;3.08;2.47;;;;;;;20.71;63.38;99706.13;1740732;81;20975;-41
2021/05/26 11:06:20;;;;;;;5.72;2.85;;;;;;;20.76;63.39;99696.60;1748723;81;21629;-42
2021/05/26 11:08:49;;;;;;;3.40;3.00;;;;;;;20.87;62.99;99699.93;1751817;81;20943;-42
2021/05/26 11:11:39;;;;;;;2.87;2.58;;;;;;;20.94;63.59;99697.06;1730121;81;22212;-42
2021/05/26 11:14:18;;;;;;;4.10;2.80;;;;;;;21.01;63.69;99692.03;1739657;81;21015;-42
2021/05/26 11:17:04;;;;;;;3.47;3.10;;;;;;;21.02;63.28;99685.30;1738942;81;20981;-42
2021/05/26 11:19:31;;;;;;;4.92;2.90;;;;;;;20.97;62.95;99682.42;1744285;80;21018;-41
2021/05/26 11:22:02;;;;;;;3.98;2.15;;;;;;;20.86;63.38;99683.23;1757069;80;20955;-42
2021/05/26 11:24:32;;;;;;;2.90;2.55;;;;;;;20.89;63.07;99674.71;1752000;81;21077;-42
2021/05/26 11:27:02;;;;;;;4.03;2.60;;;;;;;20.93;62.57;99674.05;1750467;81;21077;-42
2021/05/26 11:29:35;;;;;;;4.37;2.50;;;;;;;20.88;62.24;99676.69;1751811;81;21022;-42
2021/05/26 11:32:16;;;;;;;2.98;2.70;;;;;;;20.79;62.73;99675.08;1750632;80;21584;-42
2021/05/26 11:34:45;;;;;;;3.70;2.47;;;;;;;20.73;63.85;99680.30;1742553;81;21109;-43
2021/05/26 11:37:36;;;;;;;4.47;2.72;;;;;;;20.78;65.02;99685.33;1747212;81;21055;-42
2021/05/26 11:40:06;;;;;;;2.72;2.33;;;;;;;20.95;64.88;99684.84;1739612;81;21148;-42
2021/05/26 11:42:34;;;;;;;3.00;2.75;;;;;;;21.09;64.33;99683.20;1747197;81;20983;-42
2021/05/26 11:45:10;;;;;;;3.02;2.27;;;;;;;21.21;64.20;99692.24;1745493;81;21110;-42
2021/05/26 11:47:55;;;;;;;3.20;2.90;;;;;;;21.30;63.59;99697.19;1751098;81;21027;-43